createdAt,value
2022-07-25T00:02:34.027Z,24.80
2022-07-25T00:05:37.942Z,23.20
2022-07-25T00:08:39.761Z,23.20
2022-07-25T00:11:41.378Z,23.50
2022-07-25T00:14:42.958Z,23.20
2022-07-25T00:17:45.029Z,23.40
2022-07-25T00:20:47.291Z,24.90
2022-07-25T00:23:48.933Z,23.40
2022-07-25T00:26:50.531Z,23.40
2022-07-25T00:29:52.139Z,23.00
2022-07-25T00:32:53.719Z,25.30
2022-07-25T00:35:55.321Z,23.40
2022-07-25T00:38:56.931Z,23.60
2022-07-25T00:41:58.584Z,23.40
2022-07-25T00:45:00.334Z,23.50
2022-07-25T00:48:01.999Z,23.10
2022-07-25T00:51:03.814Z,23.10
2022-07-25T00:54:05.795Z,23.00
2022-07-25T00:57:07.781Z,23.20
2022-07-25T01:00:13.316Z,23.10
2022-07-25T01:03:15.483Z,23.00
2022-07-25T01:06:17.471Z,25.10
2022-07-25T01:09:20.815Z,22.90
2022-07-25T01:12:22.401Z,24.00
2022-07-25T01:15:24.608Z,22.70
2022-07-25T01:18:26.431Z,22.70
2022-07-25T01:21:28.055Z,24.80
2022-07-25T01:24:29.776Z,22.70
2022-07-25T01:27:31.796Z,23.10
2022-07-25T01:30:33.401Z,24.70
2022-07-25T01:33:35.093Z,23.00
2022-07-25T01:36:36.791Z,24.10
2022-07-25T01:39:38.343Z,23.10
2022-07-25T01:42:40.174Z,22.60
2022-07-25T01:45:41.820Z,22.80
2022-07-25T01:48:43.551Z,22.90
2022-07-25T01:51:45.215Z,22.70
2022-07-25T01:54:47.131Z,23.10
2022-07-25T01:57:50.315Z,22.80
2022-07-25T02:00:52.336Z,24.70
2022-07-25T02:03:53.918Z,22.70
2022-07-25T02:06:55.654Z,22.70
2022-07-25T02:09:57.288Z,22.60
2022-07-25T02:13:00.305Z,23.50
2022-07-25T02:16:01.871Z,22.70
2022-07-25T02:19:03.779Z,22.50
2022-07-25T02:22:05.561Z,22.70
2022-07-25T02:25:07.444Z,22.50
2022-07-25T02:28:10.652Z,22.40
2022-07-25T02:31:12.637Z,22.70
2022-07-25T02:34:14.289Z,24.50
2022-07-25T02:37:16.002Z,22.40
2022-07-25T02:40:17.616Z,22.40
2022-07-25T02:43:20.194Z,22.60
2022-07-25T02:46:21.932Z,24.30
2022-07-25T02:49:23.549Z,24.20
2022-07-25T02:52:25.162Z,22.60
2022-07-25T02:55:26.772Z,22.10
2022-07-25T02:58:28.365Z,23.90
2022-07-25T03:01:30.228Z,22.40
2022-07-25T03:04:32.075Z,22.30
2022-07-25T03:07:34.124Z,22.50
2022-07-25T03:10:36.370Z,24.50
2022-07-25T03:13:37.959Z,22.30
2022-07-25T03:16:39.696Z,23.30
2022-07-25T03:19:41.364Z,22.50
2022-07-25T03:22:42.970Z,24.00
2022-07-25T03:25:44.644Z,22.10
2022-07-25T03:28:46.255Z,22.10
2022-07-25T03:31:47.939Z,23.90
2022-07-25T03:34:49.703Z,23.00
2022-07-25T03:37:51.440Z,24.60
2022-07-25T03:40:53.140Z,22.10
2022-07-25T03:43:54.763Z,23.90
2022-07-25T03:46:56.484Z,24.60
2022-07-25T03:49:58.110Z,22.20
2022-07-25T03:52:59.823Z,22.50
2022-07-25T03:56:01.432Z,23.60
2022-07-25T03:59:06.636Z,22.40
2022-07-25T04:02:08.372Z,22.40
2022-07-25T04:05:10.320Z,22.10
2022-07-25T04:08:11.911Z,22.40
2022-07-25T04:11:13.588Z,23.70
2022-07-25T04:14:15.183Z,22.50
2022-07-25T04:17:16.768Z,22.40
2022-07-25T04:20:18.554Z,22.30
2022-07-25T04:23:20.251Z,24.80
2022-07-25T04:26:21.953Z,22.70
2022-07-25T04:29:23.582Z,22.70
2022-07-25T04:32:25.228Z,22.40
2022-07-25T04:35:26.903Z,22.60
2022-07-25T04:38:28.498Z,22.30
2022-07-25T04:41:30.386Z,25.10
2022-07-25T04:44:32.060Z,22.80
2022-07-25T04:47:33.638Z,23.90
2022-07-25T04:50:36.284Z,22.70
2022-07-25T04:53:37.897Z,22.60
2022-07-25T04:56:39.479Z,22.70
2022-07-25T04:59:41.135Z,23.80
2022-07-25T05:02:43.074Z,22.70
2022-07-25T05:05:44.716Z,24.80
2022-07-25T05:08:46.918Z,23.20
2022-07-25T05:11:52.792Z,24.20
2022-07-25T05:14:57.678Z,22.70
2022-07-25T05:17:59.292Z,22.90
2022-07-25T05:21:00.918Z,22.80
2022-07-25T05:24:02.578Z,24.00
2022-07-25T05:27:05.181Z,24.40
2022-07-25T05:30:09.170Z,25.20
2022-07-25T05:33:10.781Z,23.10
2022-07-25T05:36:12.395Z,23.10
2022-07-25T05:39:14.107Z,23.30
2022-07-25T05:42:15.756Z,23.50
2022-07-25T05:45:17.496Z,23.30
2022-07-25T05:48:19.102Z,23.20
2022-07-25T05:51:20.727Z,23.60
2022-07-25T05:54:22.300Z,25.70
2022-07-25T05:57:23.898Z,23.40
2022-07-25T06:00:25.969Z,23.30
2022-07-25T06:03:27.695Z,23.50
2022-07-25T06:06:32.575Z,23.30
2022-07-25T06:09:34.210Z,24.50
2022-07-25T06:12:36.745Z,23.50
2022-07-25T06:15:38.561Z,23.30
2022-07-25T06:18:40.184Z,23.40
2022-07-25T06:21:41.776Z,25.40
2022-07-25T06:24:43.361Z,23.50
2022-07-25T06:27:45.095Z,23.80
2022-07-25T06:30:46.992Z,23.40
2022-07-25T06:33:48.665Z,25.00
2022-07-25T06:36:50.250Z,23.30
2022-07-25T06:39:51.971Z,23.40
2022-07-25T06:42:53.834Z,23.70
2022-07-25T06:45:55.418Z,23.70
2022-07-25T06:48:57.433Z,23.90
2022-07-25T06:51:59.056Z,24.10
2022-07-25T06:55:00.986Z,26.30
2022-07-25T06:58:02.747Z,24.50
2022-07-25T07:01:04.559Z,26.10
2022-07-25T07:04:06.594Z,25.00
2022-07-25T07:07:08.528Z,24.50
2022-07-25T07:10:10.293Z,26.30
2022-07-25T07:13:15.075Z,24.80
2022-07-25T07:16:20.540Z,27.40
2022-07-25T07:19:22.497Z,24.90
2022-07-25T07:22:24.055Z,26.10
2022-07-25T07:25:28.375Z,25.50
2022-07-25T07:28:31.397Z,25.10
2022-07-25T07:31:33.345Z,27.40
2022-07-25T07:34:35.131Z,26.00
2022-07-25T07:37:42.927Z,27.00
2022-07-25T07:40:45.346Z,26.20
2022-07-25T07:43:47.047Z,26.20
2022-07-25T07:46:49.679Z,28.70
2022-07-25T07:49:51.308Z,26.50
2022-07-25T07:52:54.539Z,26.70
2022-07-25T07:56:05.347Z,26.80
2022-07-25T07:59:10.494Z,27.20
2022-07-25T08:02:12.240Z,27.60
2022-07-25T08:05:23.816Z,27.00
2022-07-25T08:08:30.866Z,26.80
2022-07-25T08:11:32.857Z,26.80
2022-07-25T08:14:34.483Z,27.00
2022-07-25T08:17:36.317Z,28.10
2022-07-25T08:20:38.851Z,26.80
2022-07-25T08:23:40.858Z,26.90
2022-07-25T08:26:42.478Z,26.90
2022-07-25T08:29:44.097Z,28.90
2022-07-25T08:32:54.002Z,27.00
2022-07-25T08:35:56.393Z,27.20
2022-07-25T08:38:58.035Z,29.00
2022-07-25T08:42:00.566Z,29.10
2022-07-25T08:45:05.538Z,27.00
2022-07-25T08:48:07.465Z,27.20
2022-07-25T08:51:10.032Z,28.40
2022-07-25T08:54:11.883Z,27.60
2022-07-25T08:57:16.604Z,27.00
2022-07-25T09:00:23.887Z,28.30
2022-07-25T09:03:27.169Z,26.90
2022-07-25T09:06:28.835Z,26.60
2022-07-25T09:09:33.053Z,28.60
2022-07-25T09:12:34.657Z,26.20
2022-07-25T09:15:50.729Z,28.20
2022-07-25T09:18:52.699Z,29.00
2022-07-25T09:22:12.507Z,26.70
2022-07-25T09:25:29.953Z,28.30
2022-07-25T09:28:31.923Z,29.20
2022-07-25T09:31:34.939Z,29.00
2022-07-25T09:34:38.980Z,27.40
2022-07-25T09:37:40.791Z,27.50
2022-07-25T09:40:53.076Z,27.80
2022-07-25T09:43:54.881Z,29.50
2022-07-25T09:47:10.810Z,28.40
2022-07-25T09:50:12.493Z,27.70
2022-07-25T09:53:14.363Z,27.90
2022-07-25T09:56:15.965Z,28.70
2022-07-25T09:59:17.567Z,28.10
2022-07-25T10:03:00.830Z,29.30
2022-07-25T10:06:14.791Z,28.20
2022-07-25T10:09:17.339Z,28.00
2022-07-25T10:12:21.277Z,29.80
2022-07-25T10:15:23.034Z,29.00
2022-07-25T10:18:27.639Z,27.80
2022-07-25T10:21:29.378Z,26.40
2022-07-25T10:24:35.640Z,28.70
2022-07-25T10:27:53.550Z,27.20
2022-07-25T10:30:58.908Z,28.00
2022-07-25T10:34:03.491Z,29.10
2022-07-25T10:37:18.251Z,27.00
2022-07-25T10:40:32.804Z,28.70
2022-07-25T10:43:38.741Z,27.50
2022-07-25T10:46:40.980Z,26.80
2022-07-25T10:50:06.808Z,27.30
2022-07-25T10:53:09.133Z,27.20
2022-07-25T10:56:22.080Z,27.40
2022-07-25T10:59:37.753Z,27.60
2022-07-25T11:02:39.836Z,28.50
2022-07-25T11:05:45.821Z,27.30
2022-07-25T11:08:47.422Z,29.70
2022-07-25T11:11:51.390Z,27.20
2022-07-25T11:15:06.434Z,27.50
2022-07-25T11:18:08.241Z,27.80
2022-07-25T11:21:09.892Z,27.80
2022-07-25T11:24:11.520Z,27.90
2022-07-25T11:27:24.699Z,28.20
2022-07-25T11:30:29.026Z,28.00
2022-07-25T11:33:30.987Z,29.70
2022-07-25T11:36:32.643Z,28.20
2022-07-25T11:39:36.335Z,28.60
2022-07-25T11:42:46.926Z,27.80
2022-07-25T11:45:59.742Z,28.20
2022-07-25T11:49:06.466Z,28.70
2022-07-25T11:52:19.974Z,28.20
2022-07-25T11:55:32.302Z,28.00
2022-07-25T11:58:34.002Z,28.20
2022-07-25T12:01:43.840Z,28.40
2022-07-25T12:04:57.247Z,29.10
2022-07-25T12:08:11.758Z,28.20
2022-07-25T12:11:21.369Z,28.70
2022-07-25T12:14:22.990Z,28.20
2022-07-25T12:17:24.579Z,28.50
2022-07-25T12:20:27.442Z,28.20
2022-07-25T12:23:29.173Z,28.40
2022-07-25T12:26:30.824Z,27.80
2022-07-25T12:29:32.526Z,27.90
2022-07-25T12:32:34.857Z,28.20
2022-07-25T12:35:37.405Z,28.30
2022-07-25T12:38:39.205Z,27.90
2022-07-25T12:41:42.353Z,28.50
2022-07-25T12:44:43.978Z,28.40
2022-07-25T12:47:47.549Z,28.70
2022-07-25T12:50:51.629Z,28.70
2022-07-25T12:53:53.277Z,30.80
2022-07-25T12:56:54.909Z,28.20
2022-07-25T12:59:57.033Z,29.90
2022-07-25T13:02:58.843Z,30.20
2022-07-25T13:06:00.659Z,28.00
2022-07-25T13:09:02.977Z,28.20
2022-07-25T13:12:05.096Z,28.40
2022-07-25T13:15:07.654Z,27.80
2022-07-25T13:18:09.355Z,28.00
2022-07-25T13:21:11.276Z,27.90
2022-07-25T13:24:12.952Z,29.90
2022-07-25T13:27:14.724Z,30.10
2022-07-25T13:30:16.690Z,29.50
2022-07-25T13:33:18.692Z,28.40
2022-07-25T13:36:20.691Z,30.40
2022-07-25T13:39:22.453Z,29.00
2022-07-25T13:42:24.416Z,28.90
2022-07-25T13:45:26.086Z,29.30
2022-07-25T13:48:30.542Z,29.30
2022-07-25T13:51:32.866Z,29.00
2022-07-25T13:54:34.482Z,26.70
2022-07-25T13:57:36.220Z,31.10
2022-07-25T14:00:37.801Z,27.60
2022-07-25T14:03:39.464Z,28.90
2022-07-25T14:06:41.594Z,29.50
2022-07-25T14:09:43.281Z,30.60
2022-07-25T14:12:44.989Z,29.10
2022-07-25T14:15:46.813Z,28.40
2022-07-25T14:18:48.865Z,28.50
2022-07-25T14:21:50.514Z,27.70
2022-07-25T14:24:52.384Z,27.60
2022-07-25T14:27:54.130Z,27.30
2022-07-25T14:30:55.930Z,27.20
2022-07-25T14:33:58.022Z,27.30
2022-07-25T14:36:59.937Z,27.70
2022-07-25T14:40:02.338Z,29.40
2022-07-25T14:43:04.619Z,29.40
2022-07-25T14:46:07.961Z,28.00
2022-07-25T14:49:16.765Z,27.70
2022-07-25T14:52:18.667Z,29.10
2022-07-25T14:55:22.088Z,27.90
2022-07-25T14:58:23.809Z,27.60
2022-07-25T15:01:25.634Z,27.10
2022-07-25T15:04:28.054Z,27.20
2022-07-25T15:07:29.850Z,28.20
2022-07-25T15:10:31.514Z,28.80
2022-07-25T15:13:33.257Z,26.60
2022-07-25T15:16:35.084Z,26.40
2022-07-25T15:19:36.965Z,26.60
2022-07-25T15:22:38.577Z,26.00
2022-07-25T15:29:02.449Z,25.90
2022-07-25T15:32:05.466Z,25.70
2022-07-25T15:35:08.225Z,25.80
2022-07-25T15:38:09.861Z,26.00
2022-07-25T15:41:11.950Z,25.90
2022-07-25T15:44:13.568Z,25.90
2022-07-25T15:47:15.295Z,26.00
2022-07-25T15:50:20.278Z,25.70
2022-07-25T15:53:22.050Z,25.70
2022-07-25T15:56:25.287Z,26.00
2022-07-25T15:59:27.007Z,25.40
2022-07-25T16:02:28.657Z,27.20
2022-07-25T16:05:31.362Z,25.30
2022-07-25T16:08:36.775Z,25.50
2022-07-25T16:11:39.078Z,25.20
2022-07-25T16:14:41.534Z,25.60
2022-07-25T16:17:43.273Z,25.80
2022-07-25T16:20:45.018Z,25.50
2022-07-25T16:23:46.884Z,25.50
2022-07-25T16:26:48.966Z,25.90
2022-07-25T16:29:53.230Z,26.60
2022-07-25T16:32:57.925Z,24.70
2022-07-25T16:35:59.699Z,25.00
2022-07-25T16:39:08.790Z,25.70
2022-07-25T16:42:10.801Z,24.80
2022-07-25T16:45:12.759Z,24.90
2022-07-25T16:48:14.587Z,25.10
2022-07-25T16:51:16.448Z,25.70
2022-07-25T16:54:18.243Z,24.80
2022-07-25T16:57:23.802Z,24.80
2022-07-25T17:00:26.891Z,25.00
2022-07-25T17:03:28.658Z,24.80
2022-07-25T17:06:30.951Z,26.00
2022-07-25T17:09:32.689Z,24.50
2022-07-25T17:12:38.056Z,24.60
2022-07-25T17:15:43.262Z,24.40
2022-07-25T17:18:45.285Z,25.10
2022-07-25T17:21:47.179Z,24.70
2022-07-25T17:24:48.756Z,24.80
2022-07-25T17:27:52.888Z,25.00
2022-07-25T17:30:54.673Z,25.20
2022-07-25T17:33:56.437Z,25.10
2022-07-25T17:37:02.579Z,25.10
2022-07-25T17:40:04.762Z,27.20
2022-07-25T17:43:06.581Z,26.40
2022-07-25T17:46:12.858Z,25.10
2022-07-25T17:49:16.854Z,25.20
2022-07-25T17:52:18.827Z,25.40
2022-07-25T17:55:25.973Z,25.30
2022-07-25T17:58:31.851Z,26.90
2022-07-25T18:01:33.533Z,27.40
2022-07-25T18:04:35.322Z,26.30
2022-07-25T18:07:45.530Z,27.70
2022-07-25T18:10:51.938Z,27.90
2022-07-25T18:14:01.033Z,26.80
2022-07-25T18:17:14.273Z,27.40
2022-07-25T18:20:18.482Z,25.40
2022-07-25T18:23:22.054Z,24.90
2022-07-25T18:26:23.874Z,26.20
2022-07-25T18:29:28.265Z,26.10
2022-07-25T18:32:33.100Z,24.50
2022-07-25T18:35:35.381Z,25.60
2022-07-25T18:38:40.687Z,24.00
2022-07-25T18:41:43.237Z,22.10
2022-07-25T18:44:45.059Z,23.80
2022-07-25T18:47:50.849Z,26.20
2022-07-25T18:50:52.764Z,25.20
2022-07-25T18:53:54.543Z,23.50
2022-07-25T19:00:15.051Z,23.30
2022-07-25T19:03:19.907Z,23.50
2022-07-25T19:06:21.649Z,23.20
2022-07-25T19:09:23.820Z,25.40
2022-07-25T19:12:27.231Z,23.00
2022-07-25T19:15:29.248Z,23.10
2022-07-25T19:18:37.089Z,23.00
2022-07-25T19:21:38.822Z,24.10
2022-07-25T19:24:42.935Z,22.90
2022-07-25T19:27:45.349Z,22.90
2022-07-25T19:30:48.383Z,22.60
2022-07-25T19:33:50.761Z,22.40
2022-07-25T19:36:53.940Z,20.70
2022-07-25T19:39:55.678Z,22.70
2022-07-25T19:42:57.712Z,22.20
2022-07-25T19:46:01.780Z,24.80
2022-07-25T19:49:11.854Z,22.30
2022-07-25T19:52:15.296Z,22.30
2022-07-25T19:55:17.453Z,22.40
2022-07-25T19:58:19.455Z,22.30
2022-07-25T20:01:23.997Z,24.40
2022-07-25T20:04:27.108Z,24.90
2022-07-25T20:07:29.167Z,20.30
2022-07-25T20:10:31.657Z,22.50
2022-07-25T20:13:33.733Z,22.20
2022-07-25T20:16:37.053Z,22.50
2022-07-25T20:19:39.227Z,23.30
2022-07-25T20:22:42.056Z,20.90
2022-07-25T20:25:44.654Z,22.70
2022-07-25T20:28:47.034Z,22.20
2022-07-25T20:31:49.196Z,22.30
2022-07-25T20:34:52.700Z,21.30
2022-07-25T20:37:54.867Z,24.40
2022-07-25T20:41:00.247Z,20.20
2022-07-25T20:44:02.277Z,22.10
2022-07-25T20:47:05.811Z,23.90
2022-07-25T20:50:10.099Z,24.50
2022-07-25T20:53:12.917Z,21.70
2022-07-25T20:56:21.433Z,21.80
2022-07-25T20:59:23.369Z,21.90
2022-07-25T21:02:34.944Z,21.70
2022-07-25T21:06:03.467Z,21.90
2022-07-25T21:09:12.229Z,21.60
2022-07-25T21:12:18.165Z,21.60
2022-07-25T21:15:20.623Z,21.70
2022-07-25T21:18:26.275Z,23.40
2022-07-25T21:21:51.807Z,21.50
2022-07-25T21:25:03.656Z,21.70
2022-07-25T21:28:06.387Z,21.30
2022-07-25T21:31:27.320Z,21.40
2022-07-25T21:34:30.276Z,21.00
2022-07-25T21:37:35.688Z,21.10
2022-07-25T21:40:41.542Z,21.50
2022-07-25T21:43:45.052Z,20.90
2022-07-25T21:46:51.317Z,18.80
2022-07-25T21:50:59.030Z,18.30
2022-07-25T21:58:47.647Z,21.00
2022-07-25T22:01:49.726Z,23.60
2022-07-25T22:04:58.210Z,20.60
2022-07-25T22:33:54.514Z,20.40
2022-07-25T22:41:34.999Z,20.10
2022-07-25T22:44:40.782Z,20.30
2022-07-25T22:47:47.955Z,20.50
2022-07-25T22:50:55.521Z,18.20
2022-07-25T22:54:01.372Z,20.50
2022-07-25T22:57:10.703Z,20.10
2022-07-25T23:00:16.104Z,19.10
2022-07-25T23:03:19.402Z,20.40
2022-07-25T23:06:29.199Z,20.40
2022-07-25T23:10:30.658Z,20.60
2022-07-25T23:13:34.168Z,20.40
2022-07-25T23:16:36.077Z,20.70
2022-07-25T23:20:09.731Z,20.50
2022-07-25T23:23:11.708Z,20.20
2022-07-25T23:26:13.570Z,23.00
2022-07-25T23:29:15.517Z,20.10
2022-07-25T23:32:17.500Z,20.60
2022-07-25T23:35:19.383Z,20.40
2022-07-25T23:38:22.353Z,20.30
2022-07-25T23:41:24.209Z,20.20
2022-07-25T23:44:26.595Z,22.30
2022-07-25T23:47:39.290Z,20.10
2022-07-25T23:50:42.703Z,20.60
2022-07-25T23:53:48.761Z,19.90
2022-07-25T23:56:51.763Z,20.50
2022-07-25T23:59:55.486Z,20.10
